Huvudsida
METAR-TAF:

METAR-TAF

Flygplatser :

Tjita, Ryssland

latitud: 52-05N, longitud: 113-29E, höjd: 685 m

Aktuellt väderrapport

Denna rapport gjordes för 22 minuter sedan, klockan 23:30 UTC
Vind 2 kt varierande vindriktning
Temperatur 16°C
Fuktighet 68%
Tryck 1010 hPa
Sikt 10 km eller mer

METAR: UIAA 222330Z VRB01MPS 9999 NSC 16/10 Q1010 R29/70D NOSIG RMK QFE699/0932

Tid: 08:52 (23:52 UTC)

Väderprognos

Denna rapport gjordes för 52 minuter sedan, klockan 23:00 UTC
Prognos gäller från 23 kl. 00 UTC till 23 kl. 12 UTC
Vind 6 kt från väst i byarna ända upp till 17 kt
Sikt 10 km eller mer
Spridda moln på en höjd av 4000 ft, Cumulonimbus.

TAF: UIAA 222300Z 2300/2312 27003G09MPS 9999 SCT040CB

Aktuella väderrapporter och prognoser från 4000 flygplatser (METAR- och TAF-rapporter).

De tillgängliga stationerna syns som gula och röda prickar på kartan.

För musen över prickarna för att se namnen på stationerna.

Klicka sedan för att få väderrapporter och prognoser.

För att ändra kartan: Klicka på de gröna knapparna med ett svart kors på för att zooma in; den gröna knappen med ett streck på för att zooma ut; eller på de gröna pilarna för angränsande kartor.


METAR-TAF: